sensor_id;sensor_type;location;lat;lon;timestamp;pressure;altitude;pressure_sealevel;temperature;humidity
23223;BME280;11780;13.904;100.620;2023-05-29T00:00:42;100742.94;;;32.30;64.78
23223;BME280;11780;13.904;100.620;2023-05-29T00:03:13;100748.47;;;32.30;65.00
23223;BME280;11780;13.904;100.620;2023-05-29T00:05:43;100754.84;;;32.31;64.96
23223;BME280;11780;13.904;100.620;2023-05-29T00:08:14;100752.72;;;32.28;64.82
23223;BME280;11780;13.904;100.620;2023-05-29T00:10:45;100751.59;;;32.29;65.00
23223;BME280;11780;13.904;100.620;2023-05-29T00:13:15;100756.44;;;32.32;64.68
23223;BME280;11780;13.904;100.620;2023-05-29T00:15:46;100747.34;;;32.31;64.72
23223;BME280;11780;13.904;100.620;2023-05-29T00:18:19;100754.84;;;32.31;64.54
23223;BME280;11780;13.904;100.620;2023-05-29T00:20:50;100769.34;;;32.28;64.86
23223;BME280;11780;13.904;100.620;2023-05-29T00:23:21;100770.63;;;32.30;64.52
23223;BME280;11780;13.904;100.620;2023-05-29T00:25:51;100772.09;;;32.28;64.57
23223;BME280;11780;13.904;100.620;2023-05-29T00:28:22;100775.00;;;32.31;64.61
23223;BME280;11780;13.904;100.620;2023-05-29T00:30:53;100784.81;;;32.29;65.05
23223;BME280;11780;13.904;100.620;2023-05-29T00:33:23;100788.06;;;32.22;64.89
23223;BME280;11780;13.904;100.620;2023-05-29T00:35:54;100785.28;;;32.22;64.75
23223;BME280;11780;13.904;100.620;2023-05-29T00:38:24;100786.91;;;32.23;65.12
23223;BME280;11780;13.904;100.620;2023-05-29T00:40:54;100786.56;;;32.25;64.91
23223;BME280;11780;13.904;100.620;2023-05-29T00:43:25;100785.47;;;32.26;65.16
23223;BME280;11780;13.904;100.620;2023-05-29T00:45:55;100785.94;;;32.28;65.21
23223;BME280;11780;13.904;100.620;2023-05-29T00:48:26;100783.78;;;32.33;64.48
23223;BME280;11780;13.904;100.620;2023-05-29T00:50:57;100780.06;;;32.29;64.67
23223;BME280;11780;13.904;100.620;2023-05-29T00:53:28;100784.13;;;32.32;64.63
23223;BME280;11780;13.904;100.620;2023-05-29T00:55:59;100789.66;;;32.32;64.72
23223;BME280;11780;13.904;100.620;2023-05-29T00:58:31;100787.19;;;32.39;64.31
23223;BME280;11780;13.904;100.620;2023-05-29T01:01:01;100787.19;;;32.39;64.21
23223;BME280;11780;13.904;100.620;2023-05-29T01:03:33;100770.44;;;32.36;64.05
23223;BME280;11780;13.904;100.620;2023-05-29T01:06:05;100767.16;;;32.42;64.41
23223;BME280;11780;13.904;100.620;2023-05-29T01:08:36;100765.66;;;32.45;64.56
23223;BME280;11780;13.904;100.620;2023-05-29T01:11:30;100769.09;;;32.42;64.72
23223;BME280;11780;13.904;100.620;2023-05-29T01:14:06;100766.47;;;32.45;64.66
23223;BME280;11780;13.904;100.620;2023-05-29T01:16:48;100760.13;;;32.45;64.83
23223;BME280;11780;13.904;100.620;2023-05-29T01:22:12;100767.75;;;32.48;64.57
23223;BME280;11780;13.904;100.620;2023-05-29T01:27:45;100777.81;;;32.53;64.97
23223;BME280;11780;13.904;100.620;2023-05-29T01:30:17;100790.53;;;32.54;64.87
23223;BME280;11780;13.904;100.620;2023-05-29T01:32:50;100810.41;;;32.56;64.98
23223;BME280;11780;13.904;100.620;2023-05-29T01:35:21;100818.56;;;32.52;65.33
23223;BME280;11780;13.904;100.620;2023-05-29T01:37:54;100832.53;;;32.56;65.12
23223;BME280;11780;13.904;100.620;2023-05-29T01:40:24;100842.00;;;32.55;65.15
23223;BME280;11780;13.904;100.620;2023-05-29T01:42:55;100849.97;;;32.56;65.26
23223;BME280;11780;13.904;100.620;2023-05-29T01:45:25;100847.66;;;32.58;65.05
23223;BME280;11780;13.904;100.620;2023-05-29T01:47:57;100860.25;;;32.56;65.10
23223;BME280;11780;13.904;100.620;2023-05-29T01:50:27;100857.13;;;32.57;64.86
23223;BME280;11780;13.904;100.620;2023-05-29T01:52:58;100850.44;;;32.58;65.05
23223;BME280;11780;13.904;100.620;2023-05-29T01:55:29;100865.44;;;32.57;64.88
23223;BME280;11780;13.904;100.620;2023-05-29T01:58:00;100853.88;;;32.55;64.96
23223;BME280;11780;13.904;100.620;2023-05-29T02:00:32;100853.22;;;32.58;64.80
23223;BME280;11780;13.904;100.620;2023-05-29T02:03:02;100859.56;;;32.59;64.85
23223;BME280;11780;13.904;100.620;2023-05-29T02:05:33;100860.59;;;32.54;64.65
23223;BME280;11780;13.904;100.620;2023-05-29T02:08:03;100866.44;;;32.53;64.99
23223;BME280;11780;13.904;100.620;2023-05-29T02:10:33;100866.13;;;32.54;64.60
23223;BME280;11780;13.904;100.620;2023-05-29T02:13:04;100870.69;;;32.50;64.88
23223;BME280;11780;13.904;100.620;2023-05-29T02:15:34;100874.75;;;32.53;65.06
23223;BME280;11780;13.904;100.620;2023-05-29T02:18:05;100880.28;;;32.53;64.77
23223;BME280;11780;13.904;100.620;2023-05-29T02:20:38;100878.66;;;32.52;64.88
23223;BME280;11780;13.904;100.620;2023-05-29T02:23:09;100878.66;;;32.52;64.97
23223;BME280;11780;13.904;100.620;2023-05-29T02:25:40;100882.06;;;32.48;65.29
23223;BME280;11780;13.904;100.620;2023-05-29T02:28:10;100884.31;;;32.55;64.87
23223;BME280;11780;13.904;100.620;2023-05-29T02:30:41;100882.38;;;32.56;64.65
23223;BME280;11780;13.904;100.620;2023-05-29T02:33:11;100876.03;;;32.55;64.58
23223;BME280;11780;13.904;100.620;2023-05-29T02:35:42;100876.03;;;32.55;64.54
23223;BME280;11780;13.904;100.620;2023-05-29T02:38:12;100873.59;;;32.54;64.62
23223;BME280;11780;13.904;100.620;2023-05-29T02:40:45;100864.81;;;32.52;65.03
23223;BME280;11780;13.904;100.620;2023-05-29T02:43:15;100873.41;;;32.59;64.77
23223;BME280;11780;13.904;100.620;2023-05-29T02:45:49;100865.78;;;32.56;64.78
23223;BME280;11780;13.904;100.620;2023-05-29T02:48:21;100856.81;;;32.59;64.79
23223;BME280;11780;13.904;100.620;2023-05-29T02:50:53;100857.13;;;32.57;64.72
23223;BME280;11780;13.904;100.620;2023-05-29T02:53:23;100849.50;;;32.54;64.76
23223;BME280;11780;13.904;100.620;2023-05-29T02:55:54;100841.66;;;32.56;64.25
23223;BME280;11780;13.904;100.620;2023-05-29T02:58:25;100840.84;;;32.56;64.16
23223;BME280;11780;13.904;100.620;2023-05-29T03:00:57;100837.44;;;32.59;64.18
23223;BME280;11780;13.904;100.620;2023-05-29T03:03:29;100833.50;;;32.60;64.26
23223;BME280;11780;13.904;100.620;2023-05-29T03:06:00;100846.03;;;32.57;64.04
23223;BME280;11780;13.904;100.620;2023-05-29T03:08:33;100834.31;;;32.60;63.89
23223;BME280;11780;13.904;100.620;2023-05-29T03:11:03;100833.50;;;32.60;63.94
23223;BME280;11780;13.904;100.620;2023-05-29T03:13:33;100829.72;;;32.64;63.49
23223;BME280;11780;13.904;100.620;2023-05-29T03:16:07;100833.31;;;32.65;63.74
23223;BME280;11780;13.904;100.620;2023-05-29T03:18:40;100821.91;;;32.67;63.68
23223;BME280;11780;13.904;100.620;2023-05-29T03:21:12;100815.69;;;32.70;63.43
23223;BME280;11780;13.904;100.620;2023-05-29T03:23:42;100813.91;;;32.65;63.44
23223;BME280;11780;13.904;100.620;2023-05-29T03:26:13;100812.28;;;32.64;63.50
23223;BME280;11780;13.904;100.620;2023-05-29T03:28:44;100808.66;;;32.72;63.52
23223;BME280;11780;13.904;100.620;2023-05-29T03:31:15;100810.97;;;32.70;63.64
23223;BME280;11780;13.904;100.620;2023-05-29T03:33:45;100803.94;;;32.73;63.19
23223;BME280;11780;13.904;100.620;2023-05-29T03:36:26;100800.38;;;32.72;63.20
23223;BME280;11780;13.904;100.620;2023-05-29T03:38:57;100806.03;;;32.76;63.13
23223;BME280;11780;13.904;100.620;2023-05-29T03:41:28;100800.19;;;32.77;62.96
23223;BME280;11780;13.904;100.620;2023-05-29T03:43:58;100799.34;;;32.77;63.34
23223;BME280;11780;13.904;100.620;2023-05-29T03:46:30;100795.78;;;32.76;63.12
23223;BME280;11780;13.904;100.620;2023-05-29T03:49:01;100789.09;;;32.77;63.51
23223;BME280;11780;13.904;100.620;2023-05-29T03:51:31;100782.38;;;32.78;63.23
23223;BME280;11780;13.904;100.620;2023-05-29T03:54:03;100777.19;;;32.77;63.18
23223;BME280;11780;13.904;100.620;2023-05-29T03:56:34;100777.19;;;32.77;63.27
23223;BME280;11780;13.904;100.620;2023-05-29T03:59:07;100774.91;;;32.79;63.42
23223;BME280;11780;13.904;100.620;2023-05-29T04:01:38;100772.13;;;32.79;63.20
23223;BME280;11780;13.904;100.620;2023-05-29T04:04:08;100775.69;;;32.79;62.70
23223;BME280;11780;13.904;100.620;2023-05-29T04:06:39;100775.25;;;32.77;62.89
23223;BME280;11780;13.904;100.620;2023-05-29T04:09:09;100765.44;;;32.80;62.24
23223;BME280;11780;13.904;100.620;2023-05-29T04:11:40;100763.69;;;32.75;62.27
23223;BME280;11780;13.904;100.620;2023-05-29T04:14:11;100763.81;;;32.79;62.13
23223;BME280;11780;13.904;100.620;2023-05-29T04:16:41;100763.00;;;32.78;62.22
23223;BME280;11780;13.904;100.620;2023-05-29T04:19:12;100750.78;;;32.79;62.49
23223;BME280;11780;13.904;100.620;2023-05-29T04:21:42;100763.47;;;32.80;62.54
23223;BME280;11780;13.904;100.620;2023-05-29T04:24:14;100756.81;;;32.82;62.45
23223;BME280;11780;13.904;100.620;2023-05-29T04:26:44;100753.25;;;32.81;62.11
23223;BME280;11780;13.904;100.620;2023-05-29T04:29:15;100749.34;;;32.82;62.21
23223;BME280;11780;13.904;100.620;2023-05-29T04:31:45;100748.97;;;32.84;61.98
23223;BME280;11780;13.904;100.620;2023-05-29T04:34:17;100747.38;;;32.83;62.08
23223;BME280;11780;13.904;100.620;2023-05-29T04:36:47;100740.84;;;32.78;62.39
23223;BME280;11780;13.904;100.620;2023-05-29T04:39:18;100741.81;;;32.83;62.71
23223;BME280;11780;13.904;100.620;2023-05-29T04:41:48;100750.13;;;32.83;62.87
23223;BME280;11780;13.904;100.620;2023-05-29T04:44:22;100737.91;;;32.84;62.74
23223;BME280;11780;13.904;100.620;2023-05-29T04:46:53;100738.72;;;32.84;62.60
23223;BME280;11780;13.904;100.620;2023-05-29T04:49:24;100733.97;;;32.85;62.24
23223;BME280;11780;13.904;100.620;2023-05-29T04:51:55;100724.41;;;32.82;62.79
23223;BME280;11780;13.904;100.620;2023-05-29T04:54:25;100732.84;;;32.86;62.49
23223;BME280;11780;13.904;100.620;2023-05-29T04:56:56;100729.59;;;32.84;62.44
23223;BME280;11780;13.904;100.620;2023-05-29T04:59:30;100724.88;;;32.84;61.96
23223;BME280;11780;13.904;100.620;2023-05-29T05:02:01;100720.13;;;32.85;61.67
23223;BME280;11780;13.904;100.620;2023-05-29T05:04:31;100715.41;;;32.85;61.49
23223;BME280;11780;13.904;100.620;2023-05-29T05:07:02;100713.44;;;32.86;60.91
23223;BME280;11780;13.904;100.620;2023-05-29T05:09:33;100712.66;;;32.85;61.85
23223;BME280;11780;13.904;100.620;2023-05-29T05:12:04;100709.53;;;32.87;61.20
23223;BME280;11780;13.904;100.620;2023-05-29T05:14:35;100707.56;;;32.87;60.88
23223;BME280;11780;13.904;100.620;2023-05-29T05:17:06;100701.22;;;32.87;61.33
23223;BME280;11780;13.904;100.620;2023-05-29T05:19:37;100698.09;;;32.88;61.18
23223;BME280;11780;13.904;100.620;2023-05-29T05:22:07;100695.69;;;32.87;61.45
23223;BME280;11780;13.904;100.620;2023-05-29T05:24:38;100697.78;;;32.90;61.45
23223;BME280;11780;13.904;100.620;2023-05-29T05:27:08;100691.41;;;32.89;60.96
23223;BME280;11780;13.904;100.620;2023-05-29T05:29:38;100680.34;;;32.89;60.69
23223;BME280;11780;13.904;100.620;2023-05-29T05:32:09;100684.25;;;32.88;60.54
23223;BME280;11780;13.904;100.620;2023-05-29T05:34:42;100674.00;;;32.89;61.28
23223;BME280;11780;13.904;100.620;2023-05-29T05:37:12;100661.28;;;32.88;60.29
23223;BME280;11780;13.904;100.620;2023-05-29T05:39:43;100660.13;;;32.89;60.77
23223;BME280;11780;13.904;100.620;2023-05-29T05:42:14;100660.13;;;32.89;60.91
23223;BME280;11780;13.904;100.620;2023-05-29T05:44:50;100652.63;;;32.89;60.75
23223;BME280;11780;13.904;100.620;2023-05-29T05:47:22;100645.13;;;32.90;59.95
23223;BME280;11780;13.904;100.620;2023-05-29T05:49:52;100650.31;;;32.91;60.76
23223;BME280;11780;13.904;100.620;2023-05-29T05:52:24;100637.31;;;32.92;60.50
23223;BME280;11780;13.904;100.620;2023-05-29T05:54:57;100629.78;;;32.92;60.26
23223;BME280;11780;13.904;100.620;2023-05-29T05:57:27;100629.00;;;32.92;60.64
23223;BME280;11780;13.904;100.620;2023-05-29T05:59:59;100624.59;;;32.91;60.96
23223;BME280;11780;13.904;100.620;2023-05-29T06:02:30;100618.22;;;32.90;61.09
23223;BME280;11780;13.904;100.620;2023-05-29T06:05:01;100619.53;;;32.93;61.22
23223;BME280;11780;13.904;100.620;2023-05-29T06:07:31;100609.59;;;32.92;60.31
23223;BME280;11780;13.904;100.620;2023-05-29T06:10:02;100608.44;;;32.93;60.93
23223;BME280;11780;13.904;100.620;2023-05-29T06:12:34;100605.22;;;32.91;60.88
23223;BME280;11780;13.904;100.620;2023-05-29T06:15:15;100598.16;;;32.93;60.40
23223;BME280;11780;13.904;100.620;2023-05-29T06:17:46;100594.91;;;32.91;61.27
23223;BME280;11780;13.904;100.620;2023-05-29T06:20:17;100599.31;;;32.92;61.19
23223;BME280;11780;13.904;100.620;2023-05-29T06:22:47;100594.13;;;32.91;61.13
23223;BME280;11780;13.904;100.620;2023-05-29T06:25:20;100592.16;;;32.91;60.99
23223;BME280;11780;13.904;100.620;2023-05-29T06:27:51;100591.81;;;32.93;60.75
23223;BME280;11780;13.904;100.620;2023-05-29T06:30:21;100589.50;;;32.95;60.49
23223;BME280;11780;13.904;100.620;2023-05-29T06:32:52;100593.91;;;32.96;61.08
23223;BME280;11780;13.904;100.620;2023-05-29T06:35:27;100583.84;;;32.91;61.06
23223;BME280;11780;13.904;100.620;2023-05-29T06:37:58;100584.31;;;32.93;60.99
23223;BME280;11780;13.904;100.620;2023-05-29T06:40:29;100581.53;;;32.93;61.07
23223;BME280;11780;13.904;100.620;2023-05-29T06:43:00;100577.63;;;32.94;61.24
23223;BME280;11780;13.904;100.620;2023-05-29T06:45:45;100581.19;;;32.95;61.14
23223;BME280;11780;13.904;100.620;2023-05-29T06:48:17;100578.41;;;32.95;61.31
23223;BME280;11780;13.904;100.620;2023-05-29T06:50:48;100578.78;;;32.93;61.26
23223;BME280;11780;13.904;100.620;2023-05-29T06:53:37;100571.72;;;32.96;61.40
23223;BME280;11780;13.904;100.620;2023-05-29T06:56:11;100565.03;;;32.97;61.44
23223;BME280;11780;13.904;100.620;2023-05-29T06:58:43;100561.78;;;32.95;61.62
23223;BME280;11780;13.904;100.620;2023-05-29T07:01:15;100564.91;;;32.93;61.77
23223;BME280;11780;13.904;100.620;2023-05-29T07:04:04;100565.03;;;32.97;61.69
23223;BME280;11780;13.904;100.620;2023-05-29T07:06:38;100566.19;;;32.96;61.45
23223;BME280;11780;13.904;100.620;2023-05-29T07:09:08;100553.16;;;32.97;61.68
23223;BME280;11780;13.904;100.620;2023-05-29T07:11:39;100553.47;;;32.95;61.62
23223;BME280;11780;13.904;100.620;2023-05-29T07:14:09;100549.56;;;32.96;61.68
23223;BME280;11780;13.904;100.620;2023-05-29T07:16:40;100549.09;;;32.94;61.96
23223;BME280;11780;13.904;100.620;2023-05-29T07:19:30;100537.69;;;32.95;62.33
23223;BME280;11780;13.904;100.620;2023-05-29T07:22:04;100534.44;;;32.93;62.34
23223;BME280;11780;13.904;100.620;2023-05-29T07:24:34;100532.47;;;32.94;62.34
23223;BME280;11780;13.904;100.620;2023-05-29T07:27:05;100535.72;;;32.96;62.52
23223;BME280;11780;13.904;100.620;2023-05-29T07:29:36;100520.59;;;32.93;62.24
23223;BME280;11780;13.904;100.620;2023-05-29T07:32:08;100519.81;;;32.93;62.58
23223;BME280;11780;13.904;100.620;2023-05-29T07:34:40;100524.63;;;32.96;62.92
23223;BME280;11780;13.904;100.620;2023-05-29T07:37:14;100524.63;;;32.96;63.42
23223;BME280;11780;13.904;100.620;2023-05-29T07:39:45;100527.41;;;32.96;64.10
23223;BME280;11780;13.904;100.620;2023-05-29T07:42:34;100525.56;;;33.00;64.73
23223;BME280;11780;13.904;100.620;2023-05-29T07:45:05;100527.19;;;33.01;65.17
23223;BME280;11780;13.904;100.620;2023-05-29T07:47:37;100534.69;;;33.01;65.42
23223;BME280;11780;13.904;100.620;2023-05-29T07:50:08;100528.34;;;33.00;68.23
23223;BME280;11780;13.904;100.620;2023-05-29T07:52:39;100523.63;;;33.01;69.87
23223;BME280;11780;13.904;100.620;2023-05-29T07:55:10;100515.75;;;33.03;68.72
23223;BME280;11780;13.904;100.620;2023-05-29T07:57:40;100520.50;;;33.02;68.72
23223;BME280;11780;13.904;100.620;2023-05-29T08:00:11;100520.59;;;33.06;69.24
23223;BME280;11780;13.904;100.620;2023-05-29T08:02:46;100510.09;;;32.99;69.38
23223;BME280;11780;13.904;100.620;2023-05-29T08:05:37;100504.22;;;33.01;69.51
23223;BME280;11780;13.904;100.620;2023-05-29T08:08:13;100489.91;;;32.99;69.29
23223;BME280;11780;13.904;100.620;2023-05-29T08:10:43;100480.66;;;32.94;69.51
23223;BME280;11780;13.904;100.620;2023-05-29T08:13:15;100476.06;;;32.99;69.81
23223;BME280;11780;13.904;100.620;2023-05-29T08:15:46;100471.31;;;32.99;70.13
23223;BME280;11780;13.904;100.620;2023-05-29T08:18:17;100464.63;;;33.00;69.88
23223;BME280;11780;13.904;100.620;2023-05-29T08:20:49;100459.06;;;33.00;70.56
23223;BME280;11780;13.904;100.620;2023-05-29T08:23:20;100465.19;;;32.93;71.26
23223;BME280;11780;13.904;100.620;2023-05-29T08:25:51;100455.84;;;32.98;70.70
23223;BME280;11780;13.904;100.620;2023-05-29T08:28:21;100462.06;;;32.95;71.10
23223;BME280;11780;13.904;100.620;2023-05-29T08:30:52;100466.81;;;32.94;70.73
23223;BME280;11780;13.904;100.620;2023-05-29T08:33:23;100457.44;;;32.99;70.71
23223;BME280;11780;13.904;100.620;2023-05-29T08:36:30;100454.22;;;32.97;70.88
23223;BME280;11780;13.904;100.620;2023-05-29T08:39:01;100465.28;;;32.97;70.27
23223;BME280;11780;13.904;100.620;2023-05-29T08:42:20;100462.06;;;32.95;69.77
23223;BME280;11780;13.904;100.620;2023-05-29T08:44:24;100454.22;;;32.97;69.50
23223;BME280;11780;13.904;100.620;2023-05-29T08:46:56;100445.31;;;32.91;69.63
23223;BME280;11780;13.904;100.620;2023-05-29T08:49:29;100442.66;;;32.95;69.51
23223;BME280;11780;13.904;100.620;2023-05-29T08:52:19;100433.91;;;32.93;69.16
23223;BME280;11780;13.904;100.620;2023-05-29T08:54:50;100428.72;;;32.91;69.39
23223;BME280;11780;13.904;100.620;2023-05-29T08:57:21;100431.16;;;32.93;69.58
23223;BME280;11780;13.904;100.620;2023-05-29T08:59:51;100442.22;;;32.93;69.80
23223;BME280;11780;13.904;100.620;2023-05-29T09:02:21;100448.56;;;32.93;69.39
23223;BME280;11780;13.904;100.620;2023-05-29T09:04:52;100452.94;;;32.94;68.53
23223;BME280;11780;13.904;100.620;2023-05-29T09:07:26;100456.09;;;32.93;68.66
23223;BME280;11780;13.904;100.620;2023-05-29T09:09:57;100460.31;;;32.90;69.40
23223;BME280;11780;13.904;100.620;2023-05-29T09:12:28;100461.63;;;32.93;69.89
23223;BME280;11780;13.904;100.620;2023-05-29T09:15:01;100454.47;;;32.92;69.37
23223;BME280;11780;13.904;100.620;2023-05-29T09:17:31;100437.47;;;32.93;69.52
23223;BME280;11780;13.904;100.620;2023-05-29T09:20:02;100414.63;;;32.97;69.41
23223;BME280;11780;13.904;100.620;2023-05-29T09:22:35;100415.31;;;32.93;69.68
23223;BME280;11780;13.904;100.620;2023-05-29T09:25:07;100416.59;;;32.96;69.07
23223;BME280;11780;13.904;100.620;2023-05-29T09:27:40;100419.34;;;32.96;68.22
23223;BME280;11780;13.904;100.620;2023-05-29T09:30:10;100420.84;;;32.93;68.07
23223;BME280;11780;13.904;100.620;2023-05-29T09:32:41;100431.59;;;32.95;68.40
23223;BME280;11780;13.904;100.620;2023-05-29T09:35:11;100437.47;;;32.93;68.27
23223;BME280;11780;13.904;100.620;2023-05-29T09:37:42;100436.69;;;32.93;68.22
23223;BME280;11780;13.904;100.620;2023-05-29T09:40:12;100440.72;;;32.95;69.06
23223;BME280;11780;13.904;100.620;2023-05-29T09:42:45;100448.22;;;32.95;68.49
23223;BME280;11780;13.904;100.620;2023-05-29T09:45:18;100447.88;;;32.97;68.12
23223;BME280;11780;13.904;100.620;2023-05-29T09:47:51;100442.22;;;32.93;68.77
23223;BME280;11780;13.904;100.620;2023-05-29T09:50:25;100448.56;;;32.93;69.23
23223;BME280;11780;13.904;100.620;2023-05-29T09:52:59;100458.03;;;32.92;68.91
23223;BME280;11780;13.904;100.620;2023-05-29T09:55:33;100466.69;;;32.91;69.15
23223;BME280;11780;13.904;100.620;2023-05-29T09:58:06;100474.75;;;32.96;68.70
23223;BME280;11780;13.904;100.620;2023-05-29T10:00:36;100465.97;;;32.94;68.67
23223;BME280;11780;13.904;100.620;2023-05-29T10:03:07;100463.94;;;32.91;68.63
23223;BME280;11780;13.904;100.620;2023-05-29T10:05:41;100468.31;;;32.92;68.55
23223;BME280;11780;13.904;100.620;2023-05-29T10:08:13;100470.63;;;32.90;68.40
23223;BME280;11780;13.904;100.620;2023-05-29T10:11:02;100476.47;;;32.88;68.59
23223;BME280;11780;13.904;100.620;2023-05-29T10:13:38;100474.06;;;32.87;nan
23223;BME280;11780;13.904;100.620;2023-05-29T10:16:11;100472.09;;;32.87;nan
23223;BME280;11780;13.904;100.620;2023-05-29T10:18:52;100480.06;;;32.89;nan
23223;BME280;11780;13.904;100.620;2023-05-29T10:21:27;100470.47;;;32.86;nan
23223;BME280;11780;13.904;100.620;2023-05-29T10:23:58;100480.06;;;32.89;nan
23223;BME280;11780;13.904;100.620;2023-05-29T10:26:29;100476.28;;;32.93;nan
23223;BME280;11780;13.904;100.620;2023-05-29T10:29:12;100484.22;;;32.95;nan
23223;BME280;11780;13.904;100.620;2023-05-29T10:40:25;100499.00;;;32.87;nan
23223;BME280;11780;13.904;100.620;2023-05-29T10:42:56;100508.00;;;32.84;nan
23223;BME280;11780;13.904;100.620;2023-05-29T10:50:54;100530.00;;;32.80;nan
23223;BME280;11780;13.904;100.620;2023-05-29T10:53:26;100538.63;;;32.78;nan
23223;BME280;11780;13.904;100.620;2023-05-29T10:56:00;100542.22;;;32.79;nan
23223;BME280;11780;13.904;100.620;2023-05-29T10:58:31;100548.91;;;32.78;nan
23223;BME280;11780;13.904;100.620;2023-05-29T11:01:02;100543.59;;;32.73;nan
23223;BME280;11780;13.904;100.620;2023-05-29T11:03:33;100538.19;;;32.76;nan
23223;BME280;11780;13.904;100.620;2023-05-29T11:06:06;100547.50;;;32.72;nan
23223;BME280;11780;13.904;100.620;2023-05-29T11:08:56;100547.19;;;32.73;nan
23223;BME280;11780;13.904;100.620;2023-05-29T11:14:02;100553.75;;;32.69;nan
23223;BME280;11780;13.904;100.620;2023-05-29T11:19:06;100566.78;;;32.68;nan
23223;BME280;11780;13.904;100.620;2023-05-29T11:24:26;100560.75;;;32.66;nan
23223;BME280;11780;13.904;100.620;2023-05-29T11:26:57;100570.38;;;32.69;nan
23223;BME280;11780;13.904;100.620;2023-05-29T11:29:30;100578.19;;;32.67;nan
23223;BME280;11780;13.904;100.620;2023-05-29T11:32:05;100572.19;;;32.64;nan
23223;BME280;11780;13.904;100.620;2023-05-29T11:34:41;100574.47;;;32.62;nan
23223;BME280;11780;13.904;100.620;2023-05-29T11:37:11;100583.59;;;32.63;nan
23223;BME280;11780;13.904;100.620;2023-05-29T11:39:41;100583.75;;;32.67;nan
23223;BME280;11780;13.904;100.620;2023-05-29T11:42:12;100597.91;;;32.65;nan
23223;BME280;11780;13.904;100.620;2023-05-29T11:44:42;100596.28;;;32.64;nan
23223;BME280;11780;13.904;100.620;2023-05-29T11:47:13;100597.09;;;32.64;nan
23223;BME280;11780;13.904;100.620;2023-05-29T11:49:45;100605.28;;;32.61;nan
23223;BME280;11780;13.904;100.620;2023-05-29T11:52:15;100616.81;;;32.63;nan
23223;BME280;11780;13.904;100.620;2023-05-29T11:54:46;100620.34;;;32.72;nan
23223;BME280;11780;13.904;100.620;2023-05-29T11:57:20;100632.56;;;32.71;nan
23223;BME280;11780;13.904;100.620;2023-05-29T11:59:51;100631.63;;;32.67;nan
23223;BME280;11780;13.904;100.620;2023-05-29T12:02:22;100644.84;;;32.61;nan
23223;BME280;11780;13.904;100.620;2023-05-29T12:05:04;100655.59;;;32.63;nan
23223;BME280;11780;13.904;100.620;2023-05-29T12:07:36;100657.09;;;32.60;nan
23223;BME280;11780;13.904;100.620;2023-05-29T12:10:14;100677.97;;;32.58;nan
23223;BME280;11780;13.904;100.620;2023-05-29T12:12:58;100682.53;;;32.54;nan
23223;BME280;11780;13.904;100.620;2023-05-29T12:15:31;100687.59;;;32.52;nan
23223;BME280;11780;13.904;100.620;2023-05-29T12:18:01;100693.13;;;32.52;nan
23223;BME280;11780;13.904;100.620;2023-05-29T12:20:32;100698.81;;;32.55;nan
23223;BME280;11780;13.904;100.620;2023-05-29T12:23:05;100703.91;;;32.53;nan
23223;BME280;11780;13.904;100.620;2023-05-29T12:25:35;100716.66;;;32.45;nan
23223;BME280;11780;13.904;100.620;2023-05-29T12:28:09;100723.28;;;32.53;nan
23223;BME280;11780;13.904;100.620;2023-05-29T12:30:49;100729.63;;;32.54;nan
23223;BME280;11780;13.904;100.620;2023-05-29T12:33:27;100734.53;;;32.48;nan
23223;BME280;11780;13.904;100.620;2023-05-29T12:36:03;100740.69;;;32.54;nan
23223;BME280;11780;13.904;100.620;2023-05-29T12:38:46;100752.44;;;32.50;nan
23223;BME280;11780;13.904;100.620;2023-05-29T12:41:29;100763.84;;;32.49;nan
23223;BME280;11780;13.904;100.620;2023-05-29T12:44:02;100771.50;;;32.52;nan
23223;BME280;11780;13.904;100.620;2023-05-29T12:46:38;100781.47;;;32.44;nan
23223;BME280;11780;13.904;100.620;2023-05-29T12:49:13;100778.78;;;32.27;nan
23223;BME280;11780;13.904;100.620;2023-05-29T12:51:45;100785.59;;;32.20;nan
23223;BME280;11780;13.904;100.620;2023-05-29T12:54:16;100791.97;;;32.21;nan
23223;BME280;11780;13.904;100.620;2023-05-29T12:56:47;100791.16;;;32.20;nan
23223;BME280;11780;13.904;100.620;2023-05-29T12:59:20;100788.72;;;32.28;nan
23223;BME280;11780;13.904;100.620;2023-05-29T13:01:50;100795.53;;;32.22;nan
23223;BME280;11780;13.904;100.620;2023-05-29T13:04:22;100801.25;;;32.16;nan
23223;BME280;11780;13.904;100.620;2023-05-29T13:06:53;100805.47;;;32.23;nan
23223;BME280;11780;13.904;100.620;2023-05-29T13:09:23;100799.16;;;32.13;nan
23223;BME280;11780;13.904;100.620;2023-05-29T13:11:54;100807.63;;;32.08;nan
23223;BME280;11780;13.904;100.620;2023-05-29T13:14:24;100804.22;;;32.11;nan
23223;BME280;11780;13.904;100.620;2023-05-29T13:16:55;100807.16;;;31.97;nan
23223;BME280;11780;13.904;100.620;2023-05-29T13:19:25;100796.44;;;31.96;nan
23223;BME280;11780;13.904;100.620;2023-05-29T13:21:56;100790.78;;;31.92;nan
23223;BME280;11780;13.904;100.620;2023-05-29T13:24:26;100789.47;;;31.81;nan
23223;BME280;11780;13.904;100.620;2023-05-29T13:26:57;100786.72;;;31.81;nan
23223;BME280;11780;13.904;100.620;2023-05-29T13:29:27;100790.94;;;31.87;nan